Time;durP1;ratioP1;P1;durP2;ratioP2;P2;SDS_P1;SDS_P2;PMS_P1;PMS_P2;Temp;Humidity;BMP_temperature;BMP_pressure;BME280_temperature;BME280_humidity;BME280_pressure;Samples;Min_cycle;Max_cycle;Signal;HPM_P1;HPM_P2
2022/11/04 00:02:09;;;;;;;0.10;0.10;;;11.30;99.90;10.30;96007.00;;;;5053711;28;20226;-73
2022/11/04 00:04:37;;;;;;;0.10;0.10;;;11.20;99.90;10.10;95997.00;;;;5041033;28;20314;-73
2022/11/04 00:08:22;;;;;;;0.10;0.10;;;11.10;99.90;10.00;96003.00;;;;5033772;28;20187;-73
2022/11/04 00:09:54;;;;;;;0.10;0.10;;;11.00;99.90;10.10;96003.00;;;;5053136;28;20709;-74
2022/11/04 00:12:24;;;;;;;0.00;0.00;;;11.00;99.90;10.00;95986.00;;;;5053649;28;20226;-74
2022/11/04 00:14:53;;;;;;;0.10;0.10;;;11.00;99.90;10.00;95993.00;;;;5053513;28;20209;-73
2022/11/04 00:17:23;;;;;;;0.10;0.10;;;10.90;99.90;10.10;96013.00;;;;5053646;28;20191;-72
2022/11/04 00:33:47;;;;;;;0.00;0.00;;;10.80;99.90;9.90;96038.00;;;;5053669;28;20211;-75
2022/11/04 00:36:16;;;;;;;0.10;0.10;;;10.80;99.90;9.90;96063.00;;;;5033783;28;20245;-73
2022/11/04 00:38:46;;;;;;;0.10;0.10;;;10.80;99.90;9.90;96072.00;;;;5041742;28;20215;-70
2022/11/04 00:41:26;;;;;;;0.00;0.00;;;10.80;99.90;9.90;96085.00;;;;5052827;28;20190;-69
2022/11/04 00:43:57;;;;;;;0.10;0.10;;;10.80;99.90;9.90;96071.00;;;;5053027;28;20198;-71
2022/11/04 00:46:26;;;;;;;0.10;0.10;;;10.80;99.90;9.90;96081.00;;;;5052211;28;20329;-70
2022/11/04 00:48:54;;;;;;;0.10;0.10;;;10.80;99.90;9.90;96083.00;;;;5072543;22;20234;-71
2022/11/04 00:51:23;;;;;;;0.10;0.10;;;10.80;99.90;9.90;96089.00;;;;5072674;28;20181;-71
2022/11/04 00:53:53;;;;;;;0.10;0.10;;;10.80;99.90;9.90;96095.00;;;;5072075;28;20254;-71
2022/11/04 00:56:21;;;;;;;0.10;0.10;;;10.80;99.90;9.90;96090.00;;;;5054797;28;20285;-70
2022/11/04 00:58:50;;;;;;;0.00;0.00;;;10.80;99.90;9.90;96102.00;;;;5071493;28;20217;-71
2022/11/04 01:01:19;;;;;;;0.00;0.00;;;10.80;99.90;10.00;96112.00;;;;5072681;28;20247;-71
2022/11/04 01:03:50;;;;;;;0.00;0.00;;;10.80;99.90;10.00;96115.00;;;;5067954;28;20290;-72
2022/11/04 01:06:20;;;;;;;0.00;0.00;;;10.90;99.90;10.10;96120.00;;;;5072402;28;20229;-72
2022/11/04 01:08:49;;;;;;;0.10;0.10;;;10.90;99.90;10.10;96100.00;;;;5071290;28;20244;-73
2022/11/04 01:11:19;;;;;;;0.10;0.10;;;10.90;99.90;10.00;96096.00;;;;5062688;28;20738;-71
2022/11/04 01:13:50;;;;;;;0.10;0.10;;;10.90;99.90;10.10;96107.00;;;;5068962;28;20194;-72
2022/11/04 01:16:18;;;;;;;0.10;0.10;;;11.00;99.90;10.10;96106.00;;;;5072205;28;20259;-71
2022/11/04 01:18:46;;;;;;;0.10;0.10;;;11.00;99.90;10.10;96110.00;;;;5071186;28;20210;-74
2022/11/04 01:21:16;;;;;;;0.00;0.00;;;11.00;99.90;10.20;96113.00;;;;5072112;28;20193;-72
2022/11/04 01:23:45;;;;;;;0.10;0.10;;;11.10;99.90;10.20;96098.00;;;;5072187;28;20718;-72
2022/11/04 01:26:16;;;;;;;0.10;0.10;;;11.10;99.90;10.20;96108.00;;;;5071946;28;20290;-72
2022/11/04 01:28:46;;;;;;;0.10;0.10;;;11.20;99.90;10.20;96089.00;;;;5071290;28;20699;-71
2022/11/04 01:31:17;;;;;;;0.10;0.10;;;11.10;99.90;10.30;96092.00;;;;5072049;28;20194;-71
2022/11/04 01:33:45;;;;;;;0.10;0.10;;;11.20;99.90;10.30;96089.00;;;;5071693;28;20247;-72
2022/11/04 01:36:14;;;;;;;0.10;0.10;;;11.20;99.90;10.30;96092.00;;;;5071767;28;20664;-72
2022/11/04 01:38:42;;;;;;;0.10;0.10;;;11.20;99.90;10.40;96086.00;;;;5067273;28;20205;-71
2022/11/04 01:41:19;;;;;;;0.00;0.00;;;11.30;99.90;10.40;96093.00;;;;5057006;28;20294;-71
2022/11/04 01:43:53;;;;;;;0.10;0.10;;;11.30;99.90;10.50;96081.00;;;;5071547;28;20201;-71
2022/11/04 01:46:37;;;;;;;0.10;0.10;;;11.40;99.90;10.50;96075.00;;;;5071265;28;20254;-72
2022/11/04 01:49:25;;;;;;;0.10;0.10;;;11.40;99.90;10.50;96056.00;;;;5070666;28;20236;-72
2022/11/04 01:52:00;;;;;;;0.10;0.10;;;11.40;99.90;10.50;96079.00;;;;5070776;28;20804;-72
2022/11/04 01:54:30;;;;;;;0.10;0.10;;;11.40;99.90;10.50;96073.00;;;;5071453;28;20189;-72
2022/11/04 01:57:05;;;;;;;0.10;0.10;;;11.40;99.90;10.40;96076.00;;;;5071501;28;20193;-72
2022/11/04 01:59:38;;;;;;;0.10;0.10;;;11.30;99.90;10.50;96073.00;;;;5058075;28;20243;-71
2022/11/04 02:02:07;;;;;;;0.00;0.00;;;11.30;99.90;10.50;96071.00;;;;5071020;28;20197;-71
2022/11/04 02:04:39;;;;;;;0.00;0.00;;;11.40;99.90;10.50;96075.00;;;;5071221;28;20190;-71
2022/11/04 02:07:10;;;;;;;0.10;0.10;;;11.40;99.90;10.50;96086.00;;;;5071127;28;20221;-71
2022/11/04 02:09:41;;;;;;;0.10;0.10;;;11.40;99.90;10.50;96074.00;;;;5070342;28;20221;-71
2022/11/04 02:14:58;;;;;;;0.10;0.10;;;11.40;99.90;10.50;96077.00;;;;5070857;28;20194;-72
2022/11/04 02:17:42;;;;;;;0.10;0.10;;;11.30;99.90;10.40;96074.00;;;;5070396;28;20240;-71
2022/11/04 02:20:56;;;;;;;0.10;0.10;;;11.30;99.90;10.50;96077.00;;;;5051098;28;20283;-71
2022/11/04 02:24:13;;;;;;;0.10;0.10;;;11.30;99.90;10.40;96076.00;;;;5059100;28;20734;-70
2022/11/04 02:27:28;;;;;;;0.10;0.10;;;11.30;99.90;10.40;96062.00;;;;5055812;28;20260;-71
2022/11/04 02:30:06;;;;;;;0.00;0.00;;;11.30;99.90;10.40;96067.00;;;;5071060;28;20696;-71
2022/11/04 02:32:55;;;;;;;0.00;0.00;;;11.30;99.90;10.30;96075.00;;;;5070693;28;20199;-71
2022/11/04 02:35:33;;;;;;;0.10;0.10;;;11.30;99.90;10.40;96069.00;;;;5070940;28;20198;-73
2022/11/04 02:38:16;;;;;;;0.10;0.10;;;11.30;99.90;10.40;96067.00;;;;5069867;28;20194;-71
2022/11/04 02:40:58;;;;;;;0.10;0.10;;;11.30;99.90;10.50;96047.00;;;;5070812;28;20201;-71
2022/11/04 02:43:38;;;;;;;0.10;0.10;;;11.30;99.90;10.40;96061.00;;;;5070650;28;20190;-71
2022/11/04 02:46:18;;;;;;;0.10;0.10;;;11.30;99.90;10.40;96049.00;;;;5070792;28;20274;-71
2022/11/04 02:48:52;;;;;;;0.10;0.10;;;11.30;99.90;10.40;96047.00;;;;5069644;28;20282;-71
2022/11/04 02:51:28;;;;;;;0.10;0.10;;;11.30;99.90;10.40;96050.00;;;;5071001;28;20656;-71
2022/11/04 02:54:06;;;;;;;0.00;0.00;;;11.30;99.90;10.40;96051.00;;;;5070431;28;20190;-71
2022/11/04 02:56:40;;;;;;;0.00;0.00;;;11.30;99.90;10.40;96057.00;;;;5070796;28;20599;-72
2022/11/04 02:59:18;;;;;;;0.00;0.00;;;11.30;99.90;10.30;96053.00;;;;5069808;28;20236;-71
2022/11/04 03:01:51;;;;;;;0.10;0.10;;;11.20;99.90;10.30;96049.00;;;;5070706;28;20185;-73
2022/11/04 03:04:26;;;;;;;0.10;0.10;;;11.20;99.90;10.30;96064.00;;;;5072648;28;20193;-72
2022/11/04 03:06:57;;;;;;;0.10;0.10;;;11.10;99.90;10.30;96069.00;;;;5074320;28;20217;-72
2022/11/04 03:09:30;;;;;;;0.10;0.10;;;11.20;99.90;10.30;96074.00;;;;5073587;28;20574;-72
2022/11/04 03:12:06;;;;;;;0.10;0.10;;;11.20;99.90;10.30;96065.00;;;;5074392;28;20242;-72
2022/11/04 03:14:40;;;;;;;0.10;0.10;;;11.20;99.90;10.30;96068.00;;;;5057214;28;20260;-71
2022/11/04 03:17:20;;;;;;;0.00;0.00;;;11.20;99.90;10.30;96073.00;;;;5073612;28;20263;-72
2022/11/04 03:19:57;;;;;;;0.10;0.10;;;11.20;99.90;10.30;96095.00;;;;5074150;28;20221;-70
2022/11/04 03:22:29;;;;;;;0.10;0.10;;;11.20;99.90;10.30;96089.00;;;;5073195;28;20247;-70
2022/11/04 03:24:57;;;;;;;0.10;0.10;;;11.20;99.90;10.30;96107.00;;;;5074294;28;20190;-71
2022/11/04 03:27:38;;;;;;;0.00;0.00;;;11.20;99.90;10.30;96105.00;;;;5073798;28;20587;-70
2022/11/04 03:30:11;;;;;;;0.10;0.10;;;11.20;99.90;10.30;96106.00;;;;5074306;28;20217;-70
2022/11/04 03:32:49;;;;;;;0.03;0.03;;;11.10;99.90;10.30;96105.00;;;;5074477;28;20216;-71
2022/11/04 03:35:18;;;;;;;0.10;0.10;;;11.20;99.90;10.30;96118.00;;;;5074297;28;20182;-71
2022/11/04 03:37:49;;;;;;;0.10;0.10;;;11.20;99.90;10.30;96120.00;;;;5073231;28;20186;-71
2022/11/04 03:40:20;;;;;;;0.00;0.00;;;11.20;99.90;10.30;96118.00;;;;5058575;28;20689;-72
2022/11/04 03:42:55;;;;;;;0.10;0.10;;;11.20;99.90;10.30;96137.00;;;;5063481;28;20194;-71
2022/11/04 03:45:24;;;;;;;0.10;0.10;;;11.20;99.90;10.30;96140.00;;;;5073769;28;20197;-72
2022/11/04 03:47:56;;;;;;;0.00;0.00;;;11.20;99.90;10.20;96131.00;;;;5073406;28;20629;-71
2022/11/04 03:50:29;;;;;;;0.10;0.10;;;11.20;99.90;10.30;96140.00;;;;5076329;28;20596;-73
2022/11/04 03:52:59;;;;;;;0.00;0.00;;;11.20;99.90;10.30;96143.00;;;;5073825;28;20200;-72
2022/11/04 03:55:42;;;;;;;0.10;0.10;;;11.20;99.90;10.30;96140.00;;;;5074001;28;20197;-71
2022/11/04 03:58:27;;;;;;;0.10;0.10;;;11.20;99.90;10.30;96144.00;;;;5073006;28;20219;-71
2022/11/04 04:01:12;;;;;;;0.10;0.10;;;11.30;99.90;10.30;96143.00;;;;5073751;28;20558;-73
2022/11/04 04:03:51;;;;;;;0.00;0.00;;;11.30;99.90;10.30;96150.00;;;;5073687;28;20198;-71
2022/11/04 04:06:27;;;;;;;0.10;0.10;;;11.20;99.90;10.30;96158.00;;;;5073702;28;20259;-71
2022/11/04 04:09:02;;;;;;;0.10;0.10;;;11.20;99.90;10.30;96160.00;;;;5073096;28;20221;-70
2022/11/04 04:11:41;;;;;;;0.10;0.10;;;11.20;99.90;10.30;96133.00;;;;5074295;28;20245;-71
2022/11/04 04:17:09;;;;;;;0.10;0.10;;;11.20;99.90;10.30;96172.00;;;;5073065;28;20205;-72
2022/11/04 04:19:50;;;;;;;0.10;0.10;;;11.20;99.90;10.40;96167.00;;;;5073323;28;20201;-72
2022/11/04 04:22:23;;;;;;;0.10;0.10;;;11.30;99.90;10.40;96164.00;;;;5073866;28;20276;-71
2022/11/04 04:27:46;;;;;;;0.10;0.10;;;11.30;99.90;10.40;96163.00;;;;5072700;28;20259;-70
2022/11/04 04:30:17;;;;;;;0.10;0.10;;;11.30;99.90;10.30;96162.00;;;;5053165;28;20214;-71
2022/11/04 04:32:49;;;;;;;0.10;0.10;;;11.30;99.90;10.30;96162.00;;;;5053606;28;20206;-71
2022/11/04 04:35:44;;;;;;;0.00;0.00;;;11.20;99.90;10.30;96154.00;;;;5065540;28;20228;-70
2022/11/04 04:46:51;;;;;;;0.10;0.10;;;11.30;99.90;10.40;96162.00;;;;5066160;28;20235;-71
2022/11/04 04:49:19;;;;;;;0.10;0.10;;;11.30;99.90;10.40;96161.00;;;;5072285;28;20218;-72
2022/11/04 04:51:52;;;;;;;0.10;0.10;;;11.30;99.90;10.40;96168.00;;;;5072181;28;20627;-71
2022/11/04 04:54:20;;;;;;;0.10;0.10;;;11.30;99.90;10.20;96161.00;;;;5058037;28;20193;-71
2022/11/04 04:56:48;;;;;;;0.10;0.10;;;11.30;99.90;10.30;96173.00;;;;5068801;28;20209;-70
2022/11/04 04:59:16;;;;;;;0.10;0.10;;;11.20;99.90;10.20;96171.00;;;;5063834;28;20279;-72
2022/11/04 05:01:44;;;;;;;0.10;0.10;;;11.20;99.90;10.30;96164.00;;;;5070979;28;20231;-70
2022/11/04 05:04:13;;;;;;;0.10;0.10;;;11.30;99.90;10.30;96161.00;;;;5062783;28;20229;-69
2022/11/04 05:06:41;;;;;;;0.10;0.10;;;11.20;99.90;10.30;96174.00;;;;5061575;28;20267;-69
2022/11/04 05:09:10;;;;;;;0.03;0.03;;;11.20;99.90;10.30;96177.00;;;;5062793;28;20217;-68
2022/11/04 05:11:38;;;;;;;0.00;0.00;;;11.20;99.90;10.30;96165.00;;;;5072235;28;20709;-69
2022/11/04 05:14:06;;;;;;;0.10;0.10;;;11.20;99.90;10.30;96178.00;;;;5054821;28;20190;-69
2022/11/04 05:16:34;;;;;;;0.10;0.10;;;11.20;99.90;10.30;96171.00;;;;5059659;28;20278;-69
2022/11/04 05:19:08;;;;;;;0.10;0.10;;;11.20;99.90;10.30;96177.00;;;;5065281;28;20213;-69
2022/11/04 05:21:36;;;;;;;0.10;0.10;;;11.20;99.90;10.40;96169.00;;;;5063286;28;20189;-69
2022/11/04 05:24:04;;;;;;;0.03;0.03;;;11.20;99.90;10.40;96175.00;;;;5065399;28;20193;-69
2022/11/04 05:26:35;;;;;;;0.10;0.10;;;11.30;99.90;10.40;96170.00;;;;5058483;28;20310;-69
2022/11/04 05:29:04;;;;;;;0.10;0.10;;;11.30;99.90;10.40;96170.00;;;;5068837;28;20221;-69
2022/11/04 05:31:32;;;;;;;0.10;0.10;;;11.30;99.90;10.30;96164.00;;;;5064192;28;20197;-69
2022/11/04 05:34:00;;;;;;;0.00;0.00;;;11.30;99.90;10.30;96167.00;;;;5052176;28;20256;-69
2022/11/04 05:36:28;;;;;;;0.00;0.00;;;11.30;99.90;10.30;96148.00;;;;5056884;28;20198;-70
2022/11/04 05:38:56;;;;;;;0.10;0.10;;;11.30;99.90;10.30;96149.00;;;;5067377;28;20276;-70
2022/11/04 05:41:27;;;;;;;0.10;0.10;;;11.30;99.90;10.30;96151.00;;;;5055375;28;20727;-70
2022/11/04 05:43:59;;;;;;;0.10;0.10;;;11.20;99.90;10.30;96141.00;;;;5071661;28;20364;-69
2022/11/04 05:46:28;;;;;;;0.10;0.10;;;11.20;99.90;10.30;96154.00;;;;5070081;28;20562;-70
2022/11/04 05:48:57;;;;;;;0.10;0.10;;;11.20;99.90;10.30;96148.00;;;;5066182;28;20334;-69
2022/11/04 05:51:28;;;;;;;0.10;0.10;;;11.30;99.90;10.30;96146.00;;;;5064097;28;20205;-69
2022/11/04 05:53:56;;;;;;;0.10;0.10;;;11.20;99.90;10.20;96149.00;;;;5056981;28;20267;-70
2022/11/04 05:56:24;;;;;;;0.10;0.10;;;11.20;99.90;10.20;96153.00;;;;5061410;28;20189;-69
2022/11/04 05:58:53;;;;;;;0.10;0.10;;;11.10;99.90;10.20;96149.00;;;;5070479;28;20271;-70
2022/11/04 06:01:30;;;;;;;0.00;0.00;;;11.10;99.90;10.30;96156.00;;;;5061790;28;20217;-69
2022/11/04 06:04:01;;;;;;;0.10;0.10;;;11.20;99.90;10.20;96150.00;;;;5072288;28;20339;-70
2022/11/04 06:06:32;;;;;;;0.10;0.10;;;11.20;99.90;10.20;96159.00;;;;5071222;28;20185;-69
2022/11/04 06:09:02;;;;;;;0.10;0.10;;;11.20;99.90;10.30;96159.00;;;;5058889;28;20704;-70
2022/11/04 06:11:33;;;;;;;0.10;0.10;;;11.20;99.90;10.30;96154.00;;;;5066096;28;20221;-71
2022/11/04 06:14:01;;;;;;;0.10;0.10;;;11.30;99.90;10.20;96148.00;;;;5071486;28;20202;-69
2022/11/04 06:16:31;;;;;;;0.10;0.10;;;11.20;99.90;10.20;96138.00;;;;5065284;28;20201;-70
2022/11/04 06:18:59;;;;;;;0.10;0.10;;;11.20;99.90;10.10;96140.00;;;;5070296;28;20720;-69
2022/11/04 06:21:36;;;;;;;0.10;0.10;;;11.10;99.90;10.20;96162.00;;;;5068943;28;20668;-70
2022/11/04 06:24:05;;;;;;;0.10;0.10;;;11.20;99.90;10.20;96170.00;;;;5071027;28;20243;-70
2022/11/04 06:26:33;;;;;;;0.10;0.10;;;11.10;99.90;10.10;96164.00;;;;5061050;28;20251;-70
2022/11/04 06:29:01;;;;;;;0.10;0.10;;;11.10;99.90;10.10;96161.00;;;;5070077;28;20221;-70
2022/11/04 06:31:31;;;;;;;0.10;0.10;;;11.10;99.90;10.10;96150.00;;;;5060937;28;20239;-70
2022/11/04 06:33:59;;;;;;;0.10;0.10;;;11.00;99.90;10.10;96150.00;;;;5070785;28;20185;-70
2022/11/04 06:36:27;;;;;;;0.10;0.10;;;11.10;99.90;10.10;96145.00;;;;5054435;28;20190;-71
2022/11/04 06:38:55;;;;;;;0.10;0.10;;;11.10;99.90;10.10;96145.00;;;;5046562;28;20225;-70
2022/11/04 06:41:31;;;;;;;0.10;0.10;;;11.00;99.90;10.00;96163.00;;;;5072961;28;20538;-70
2022/11/04 06:44:00;;;;;;;0.00;0.00;;;11.00;99.90;10.10;96178.00;;;;5071206;28;20200;-69
2022/11/04 06:46:34;;;;;;;0.00;0.00;;;11.00;99.90;10.10;96161.00;;;;5068806;28;20250;-69
2022/11/04 06:49:03;;;;;;;0.10;0.10;;;11.00;99.90;10.00;96146.00;;;;5094368;22;20228;-73
2022/11/04 06:51:33;;;;;;;0.10;0.10;;;11.00;99.90;10.10;96158.00;;;;5053052;28;20220;-74
2022/11/04 06:54:01;;;;;;;0.10;0.10;;;11.00;99.90;10.00;96158.00;;;;5067016;28;20197;-74
2022/11/04 06:56:30;;;;;;;0.00;0.00;;;10.90;99.90;10.00;96176.00;;;;5058743;28;20198;-74
2022/11/04 06:58:58;;;;;;;0.00;0.00;;;10.90;99.90;10.00;96186.00;;;;5070433;28;20210;-73
2022/11/04 07:01:31;;;;;;;0.10;0.10;;;10.90;99.90;10.00;96182.00;;;;5033916;28;20199;-74
2022/11/04 07:04:02;;;;;;;0.10;0.10;;;10.90;99.90;10.00;96188.00;;;;5062979;28;20198;-74
2022/11/04 07:06:30;;;;;;;0.10;0.10;;;10.90;99.90;10.00;96195.00;;;;5052133;28;20202;-74
2022/11/04 07:09:01;;;;;;;0.10;0.10;;;10.90;99.90;10.00;96185.00;;;;5050131;28;20268;-73
2022/11/04 07:11:32;;;;;;;0.10;0.10;;;11.00;99.90;10.00;96183.00;;;;5044414;28;20250;-75
2022/11/04 07:14:01;;;;;;;0.00;0.00;;;11.00;99.90;10.10;96200.00;;;;5060038;28;20195;-75
2022/11/04 07:16:29;;;;;;;0.10;0.10;;;11.00;99.90;10.10;96205.00;;;;5068099;28;20206;-75
2022/11/04 07:18:57;;;;;;;0.10;0.10;;;11.00;99.90;10.00;96201.00;;;;5070072;28;20631;-75
2022/11/04 07:21:27;;;;;;;0.10;0.10;;;11.00;99.90;10.00;96212.00;;;;5034400;28;20191;-74
2022/11/04 07:23:55;;;;;;;0.10;0.10;;;11.00;99.90;10.00;96212.00;;;;5030703;28;20191;-75
2022/11/04 07:26:23;;;;;;;0.10;0.10;;;11.00;99.90;10.00;96215.00;;;;5043624;28;20207;-74
2022/11/04 07:28:52;;;;;;;0.10;0.10;;;11.00;99.90;10.00;96219.00;;;;5049923;28;20210;-75
2022/11/04 07:31:21;;;;;;;0.10;0.10;;;10.90;99.90;10.00;96219.00;;;;5049538;28;20186;-76
2022/11/04 07:33:50;;;;;;;0.10;0.10;;;10.90;99.90;10.00;96230.00;;;;5050726;28;20290;-75
2022/11/04 07:36:19;;;;;;;0.00;0.00;;;10.90;99.90;10.00;96240.00;;;;5045234;28;20195;-75
2022/11/04 07:38:49;;;;;;;0.00;0.00;;;11.00;99.90;10.10;96212.00;;;;5049584;28;20198;-75
2022/11/04 07:41:18;;;;;;;0.00;0.00;;;11.00;99.90;10.10;96256.00;;;;5050097;28;20191;-75
2022/11/04 07:43:50;;;;;;;0.10;0.10;;;11.00;99.90;10.00;96251.00;;;;5045269;28;20191;-75
2022/11/04 07:46:20;;;;;;;0.08;0.08;;;11.00;99.90;9.90;96265.00;;;;5037275;28;20199;-75
2022/11/04 07:48:48;;;;;;;0.00;0.00;;;10.80;99.90;9.80;96260.00;;;;5043039;28;20627;-75
2022/11/04 07:51:20;;;;;;;0.10;0.10;;;10.80;99.90;9.80;96253.00;;;;5035910;28;20203;-74
2022/11/04 07:53:50;;;;;;;0.00;0.00;;;10.70;99.90;9.80;96254.00;;;;5048955;28;20202;-75
2022/11/04 07:56:18;;;;;;;0.10;0.10;;;10.70;99.90;9.80;96261.00;;;;5050128;28;20240;-75
2022/11/04 07:58:47;;;;;;;0.10;0.10;;;10.70;99.90;9.70;96232.00;;;;5044433;28;20600;-74
2022/11/04 08:01:18;;;;;;;0.10;0.10;;;10.60;99.90;9.70;96231.00;;;;5034988;28;20214;-75
2022/11/04 08:03:48;;;;;;;0.10;0.10;;;10.60;99.90;9.60;96237.00;;;;5041388;28;20270;-74
2022/11/04 08:06:21;;;;;;;0.10;0.10;;;10.60;99.90;9.80;96252.00;;;;5047151;28;20201;-75
2022/11/04 08:08:52;;;;;;;0.10;0.10;;;10.70;99.90;9.90;96251.00;;;;5051733;28;20256;-74
2022/11/04 08:11:27;;;;;;;0.00;0.00;;;10.80;99.90;9.80;96248.00;;;;5040992;28;20191;-75
2022/11/04 08:13:55;;;;;;;0.10;0.10;;;10.70;99.90;9.80;96240.00;;;;5050155;28;20738;-74
2022/11/04 08:16:25;;;;;;;0.10;0.10;;;10.80;99.90;9.80;96186.00;;;;5032821;28;20619;-75
2022/11/04 08:19:01;;;;;;;0.10;0.10;;;10.80;99.90;9.90;96212.00;;;;5036371;28;20256;-74
2022/11/04 08:21:31;;;;;;;0.00;0.00;;;10.80;99.90;9.90;96222.00;;;;5053318;28;20577;-74
2022/11/04 08:24:04;;;;;;;0.03;0.03;;;10.80;99.90;9.80;96216.00;;;;5053247;28;20195;-74
2022/11/04 08:26:32;;;;;;;0.10;0.10;;;10.80;99.90;9.70;96200.00;;;;5052516;28;20205;-75
2022/11/04 08:29:01;;;;;;;0.10;0.10;;;10.70;99.90;9.80;96187.00;;;;5049545;28;20226;-74
2022/11/04 08:31:32;;;;;;;0.10;0.10;;;10.70;99.90;9.70;96148.00;;;;5043956;28;20194;-75
2022/11/04 08:34:01;;;;;;;0.10;0.10;;;10.70;99.90;9.80;96170.00;;;;5051469;28;20661;-75
2022/11/04 08:36:35;;;;;;;0.10;0.10;;;10.70;99.90;9.80;96149.00;;;;5033473;28;20678;-74
2022/11/04 08:39:06;;;;;;;0.10;0.10;;;10.80;99.90;9.80;96180.00;;;;5038167;28;20701;-75
2022/11/04 08:41:41;;;;;;;0.10;0.10;;;10.70;99.90;9.70;96167.00;;;;5052735;28;20254;-75
2022/11/04 08:44:13;;;;;;;0.10;0.10;;;10.70;99.90;9.60;96182.00;;;;5051886;28;20198;-74
2022/11/04 08:46:44;;;;;;;0.00;0.00;;;10.70;99.90;9.60;96180.00;;;;5044765;28;20236;-75
2022/11/04 08:49:13;;;;;;;0.10;0.10;;;10.60;99.90;9.60;96191.00;;;;5041212;28;20234;-74
2022/11/04 08:51:55;;;;;;;0.00;0.00;;;10.60;99.90;9.50;96203.00;;;;5037760;28;20190;-75
2022/11/04 08:54:25;;;;;;;0.00;0.00;;;10.50;99.90;9.50;96195.00;;;;5033462;28;20607;-76
2022/11/04 08:56:54;;;;;;;0.10;0.10;;;10.50;99.90;9.50;96203.00;;;;5035106;28;20191;-74
2022/11/04 08:59:23;;;;;;;0.10;0.10;;;10.50;99.90;9.50;96205.00;;;;5048089;28;20222;-75
2022/11/04 09:01:52;;;;;;;0.00;0.00;;;10.40;99.90;9.50;96172.00;;;;5051893;28;20575;-75
2022/11/04 09:04:20;;;;;;;0.10;0.10;;;10.40;99.90;9.50;96208.00;;;;5052759;28;20256;-74
2022/11/04 09:06:49;;;;;;;0.10;0.10;;;10.50;99.90;9.50;96198.00;;;;5045285;28;20195;-75
2022/11/04 09:09:18;;;;;;;0.10;0.10;;;10.50;99.90;9.60;96153.00;;;;5051172;28;20229;-74
2022/11/04 09:11:48;;;;;;;0.10;0.10;;;10.50;99.90;9.60;96215.00;;;;5052465;28;20600;-74
2022/11/04 09:14:17;;;;;;;0.00;0.00;;;10.60;99.90;9.70;96214.00;;;;5052070;28;20205;-74
2022/11/04 09:16:47;;;;;;;0.10;0.10;;;10.60;99.90;9.70;96217.00;;;;5048440;28;20195;-76
2022/11/04 09:19:15;;;;;;;0.00;0.00;;;10.70;99.90;9.60;96231.00;;;;5034818;28;20225;-75
2022/11/04 09:21:43;;;;;;;0.10;0.10;;;10.50;99.90;9.60;96251.00;;;;5040393;28;20569;-76
2022/11/04 09:24:12;;;;;;;0.10;0.10;;;10.50;99.90;9.60;96247.00;;;;5045303;28;20194;-76
2022/11/04 09:26:40;;;;;;;0.10;0.10;;;10.50;99.90;9.60;96246.00;;;;5051397;28;20625;-74
2022/11/04 09:29:10;;;;;;;0.10;0.10;;;10.50;99.90;9.60;96252.00;;;;5047871;28;20250;-74
2022/11/04 09:31:39;;;;;;;0.05;0.05;;;10.50;99.90;9.60;96261.00;;;;5044495;28;20244;-74
2022/11/04 09:34:08;;;;;;;0.10;0.10;;;10.60;99.90;9.60;96260.00;;;;5047259;28;20248;-75
2022/11/04 09:36:36;;;;;;;0.10;0.10;;;10.50;99.90;9.60;96261.00;;;;5049402;28;20247;-75
2022/11/04 09:39:06;;;;;;;0.10;0.10;;;10.50;99.90;9.60;96252.00;;;;5038916;28;20261;-74
2022/11/04 09:42:25;;;;;;;0.10;0.10;;;10.60;99.90;9.60;96255.00;;;;5045212;28;20201;-75
2022/11/04 09:45:00;;;;;;;0.10;0.10;;;10.60;99.90;9.60;96259.00;;;;5039131;28;20190;-74
2022/11/04 09:47:55;;;;;;;0.10;0.10;;;10.60;99.90;9.60;96248.00;;;;5041953;28;20241;-76
2022/11/04 09:50:27;;;;;;;0.00;0.00;;;10.60;99.90;9.60;96248.00;;;;5033268;28;20222;-75
2022/11/04 09:53:05;;;;;;;0.00;0.00;;;10.60;99.90;9.60;96255.00;;;;5051951;28;20202;-75
2022/11/04 09:55:41;;;;;;;0.10;0.10;;;10.60;99.90;9.70;96253.00;;;;5053556;28;20621;-74
2022/11/04 09:58:13;;;;;;;0.10;0.10;;;10.70;99.90;9.60;96205.00;;;;5054919;28;20556;-74
2022/11/04 10:00:54;;;;;;;0.10;0.10;;;10.60;99.90;9.70;96259.00;;;;5053662;28;20221;-74
2022/11/04 10:03:43;;;;;;;0.10;0.10;;;10.70;99.90;9.70;96265.00;;;;5039166;28;20197;-74
2022/11/04 10:06:31;;;;;;;0.00;0.00;;;10.70;99.90;9.70;96277.00;;;;5051950;28;20260;-75
2022/11/04 10:09:22;;;;;;;0.05;0.05;;;10.70;99.90;9.80;96286.00;;;;5049354;28;20222;-75
2022/11/04 10:12:05;;;;;;;0.10;0.10;;;10.80;99.90;9.80;96273.00;;;;5049368;28;20195;-74
2022/11/04 10:15:07;;;;;;;0.10;0.10;;;10.80;99.90;9.70;96269.00;;;;5050862;28;20198;-75
2022/11/04 10:18:00;;;;;;;0.10;0.10;;;10.70;99.90;9.60;96280.00;;;;5045242;28;20222;-76
2022/11/04 10:20:48;;;;;;;0.10;0.10;;;10.60;99.90;9.70;96268.00;;;;5037435;28;20206;-75
2022/11/04 10:23:23;;;;;;;0.00;0.00;;;10.70;99.90;9.70;96257.00;;;;5031938;28;20245;-75
2022/11/04 10:26:03;;;;;;;0.00;0.00;;;10.70;99.90;9.80;96278.00;;;;5040562;28;20193;-75
2022/11/04 10:28:41;;;;;;;0.00;0.00;;;10.70;99.90;9.80;96270.00;;;;5049980;28;20194;-75
2022/11/04 10:31:15;;;;;;;0.10;0.10;;;10.70;99.90;9.70;96276.00;;;;5052025;28;20205;-74
2022/11/04 10:33:51;;;;;;;0.10;0.10;;;10.70;99.90;9.80;96233.00;;;;5051756;28;20746;-74
2022/11/04 10:36:21;;;;;;;0.10;0.10;;;10.80;99.90;9.90;96256.00;;;;5037824;28;20721;-74
2022/11/04 10:38:53;;;;;;;0.00;0.00;;;10.90;99.90;9.90;96266.00;;;;5040314;28;20660;-74
2022/11/04 10:41:32;;;;;;;0.00;0.00;;;10.80;99.90;9.90;96270.00;;;;5043447;28;20232;-76
2022/11/04 10:44:05;;;;;;;0.10;0.10;;;10.80;99.90;9.90;96260.00;;;;5041175;28;20245;-74
2022/11/04 10:46:54;;;;;;;0.00;0.00;;;10.80;99.90;9.90;96256.00;;;;5035865;28;20204;-75
2022/11/04 10:50:22;;;;;;;0.10;0.10;;;10.80;99.90;9.80;96271.00;;;;5050000;28;20256;-74
2022/11/04 10:53:11;;;;;;;0.10;0.10;;;10.70;99.90;9.70;96260.00;;;;4967010;28;20193;-74
2022/11/04 10:55:52;;;;;;;0.03;0.03;;;10.70;99.90;9.80;96257.00;;;;5032113;28;20248;-75
2022/11/04 10:58:26;;;;;;;0.10;0.10;;;10.70;99.90;9.90;96248.00;;;;5038204;28;20758;-74
2022/11/04 11:00:56;;;;;;;0.10;0.10;;;10.80;99.90;9.80;96266.00;;;;5035854;28;20285;-74
2022/11/04 11:03:32;;;;;;;0.00;0.00;;;10.70;99.90;9.80;96269.00;;;;5049111;28;20199;-73
2022/11/04 11:06:22;;;;;;;0.10;0.10;;;10.80;99.90;9.70;96284.00;;;;5049817;28;20668;-75
2022/11/04 11:08:52;;;;;;;0.05;0.05;;;10.70;99.90;9.70;96276.00;;;;5049871;28;20236;-74
2022/11/04 11:11:39;;;;;;;0.00;0.00;;;10.70;99.90;9.80;96271.00;;;;5033425;28;20215;-74
2022/11/04 11:14:32;;;;;;;0.00;0.00;;;10.70;99.90;9.80;96283.00;;;;5031017;28;20210;-74
2022/11/04 11:17:24;;;;;;;0.00;0.00;;;10.70;99.90;9.80;96287.00;;;;5031010;28;20206;-76
2022/11/04 11:19:57;;;;;;;0.10;0.10;;;10.70;99.90;9.80;96258.00;;;;5038622;28;20210;-74
2022/11/04 11:22:37;;;;;;;0.10;0.10;;;10.70;99.90;9.70;96267.00;;;;5050894;28;20560;-76
2022/11/04 11:25:23;;;;;;;0.10;0.10;;;10.60;99.90;9.70;96275.00;;;;5048655;28;20264;-75
2022/11/04 11:27:56;;;;;;;0.10;0.10;;;10.70;99.90;9.70;96270.00;;;;5054813;28;20661;-74
2022/11/04 11:30:30;;;;;;;0.00;0.00;;;10.60;99.90;9.80;96317.00;;;;5054266;28;20245;-76
2022/11/04 11:33:03;;;;;;;0.10;0.10;;;10.70;99.90;9.80;96266.00;;;;5054888;28;20198;-75
2022/11/04 11:35:40;;;;;;;0.00;0.00;;;10.80;99.90;9.80;96271.00;;;;5043905;28;20198;-75
2022/11/04 11:38:20;;;;;;;0.03;0.03;;;10.80;99.90;9.70;96259.00;;;;5034087;28;20266;-74
2022/11/04 11:40:51;;;;;;;0.10;0.10;;;10.70;99.90;9.80;96209.00;;;;5034979;28;20233;-76
2022/11/04 11:43:50;;;;;;;0.00;0.00;;;10.80;99.90;10.00;96241.00;;;;5040731;28;20728;-74
2022/11/04 11:46:23;;;;;;;0.10;0.10;;;10.90;99.90;10.00;96252.00;;;;5053873;28;20292;-75
2022/11/04 11:48:53;;;;;;;0.10;0.10;;;10.90;99.90;10.10;96252.00;;;;5039611;28;20713;-75
2022/11/04 11:51:28;;;;;;;0.00;0.00;;;11.00;99.90;10.20;96262.00;;;;5043229;28;20629;-75
2022/11/04 11:54:17;;;;;;;0.10;0.10;;;11.10;99.90;10.20;96260.00;;;;5052103;28;20293;-75
2022/11/04 11:56:50;;;;;;;0.10;0.10;;;11.10;99.90;10.20;96268.00;;;;5054612;28;20528;-75
2022/11/04 11:59:47;;;;;;;0.10;0.10;;;11.10;99.90;10.20;96251.00;;;;5045154;28;20254;-75